Latest Weather Observations for Point Fawcett

IDD60801

Issued at 10:31 pm CST Saturday 23 July 2016 (issued every 30 minutes, with the page automatically refreshed every 10 minutes)

About weather observations | Map of weather stations | Latest weather observations for NT | Other Formats
Station Details ID: 200731 Name: POINT FAWCETT Lat: -11.76 Lon: 130.03 Height: 6.5 m
Data from the previous 72 hours. | See also: Recent months at Point Fawcett
Date/Time
CST
Temp
°C
App
Temp
°C
Dew
Point
°C
Rel
Hum
%
Delta-T
°C
Wind Press
QNH
hPa
Press
MSL
hPa
Rain since
9am
mm
Dir  Spd
km/h
Gust
km/h
Spd
kts
Gust
kts
23/10:30pm 21.6 24.1 19.9 90 1.1 ESE 6 7 3 4 1011.1 - 0.0
23/10:00pm 21.8 24.2 19.7 88 1.3 ESE 6 6 3 3 1010.9 - 0.0
23/09:30pm 22.0 24.3 19.5 86 1.6 ESE 6 6 3 3 1010.7 - 0.0
23/09:00pm 22.5 24.9 19.7 84 1.8 ESE 6 6 3 3 1010.5 1010.5 0.0
23/08:30pm 23.0 25.3 19.8 82 2.1 ESE 7 7 4 4 1010.3 - 0.0
23/08:00pm 23.7 26.5 19.6 78 2.6 S 4 6 2 3 1010.1 - 0.0
23/07:30pm 25.0 28.6 19.8 73 3.4 CALM 0 0 0 0 1009.8 - 0.0
23/07:00pm 26.7 30.7 20.5 69 4.1 CALM 0 0 0 0 1009.6 - 0.0
23/06:30pm 28.3 31.6 20.8 63 5.0 SSE 4 7 2 4 1009.1 - 0.0
23/06:00pm 29.3 32.0 20.7 59 5.7 SE 7 11 4 6 1009.1 1009.1 0.0
23/05:30pm 30.2 33.4 21.6 60 5.8 SSE 7 13 4 7 1009.0 - 0.0
23/05:00pm 31.0 34.1 21.5 57 6.4 S 7 13 4 7 1009.0 - 0.0
23/04:30pm 30.7 33.1 21.5 58 6.2 S 11 19 6 10 1009.0 - 0.0
23/04:00pm 30.6 32.4 21.1 57 6.4 SSE 13 24 7 13 1009.2 - 0.0
23/03:30pm 30.9 32.8 21.4 57 6.4 S 13 24 7 13 1009.4 - 0.0
23/03:00pm 31.7 34.2 21.8 55 6.7 SSE 11 17 6 9 1009.7 1009.7 0.0
23/02:30pm 30.8 32.0 20.7 55 6.7 S 15 28 8 15 1010.1 - 0.0
23/02:00pm 31.5 32.9 21.1 54 7.0 S 15 22 8 12 1010.6 - 0.0
23/01:30pm 31.7 34.1 21.5 54 6.9 SSE 11 20 6 11 1010.9 - 0.0
23/01:00pm 30.8 33.8 21.9 59 6.0 WNW 9 11 5 6 1011.5 - 0.0
23/12:30pm 30.9 33.8 22.5 61 5.7 WNW 11 19 6 10 1012.0 - 0.0
23/12:00pm 30.4 32.4 22.3 62 5.5 NW 15 19 8 10 1012.4 1012.4 0.0
23/11:30am 31.7 34.8 22.1 56 6.5 NNE 9 15 5 8 1012.7 - 0.0
23/11:00am 31.1 33.8 21.3 56 6.6 NNE 9 13 5 7 1013.1 - 0.0
23/10:30am 30.2 32.2 20.7 56 6.3 NE 11 17 6 9 1013.3 - 0.0
23/10:00am 29.5 31.8 20.6 58 5.9 NE 9 15 5 8 1013.6 - 0.0
23/09:30am 29.1 32.3 21.6 64 5.0 ENE 7 11 4 6 1013.6 - 0.0
23/09:00am 27.9 31.7 22.8 74 3.5 ENE 7 13 4 7 1013.3 1013.3 0.0
23/08:30am 24.9 30.2 24.9 100 0.0 E 6 9 3 5 1013.1 - 0.0
23/08:00am 21.8 25.1 21.8 100 0.0 ESE 7 9 4 5 1012.8 - 0.0
23/07:30am 20.2 22.6 20.0 99 0.1 SE 7 7 4 4 1012.3 - 0.0
23/07:00am 19.8 22.1 19.5 98 0.2 SE 6 7 3 4 1012.0 - 0.0
23/06:30am 19.6 21.6 19.1 97 0.3 SSE 7 7 4 4 1011.8 - 0.0
23/06:00am 20.0 22.2 19.5 97 0.3 SSE 7 7 4 4 1011.5 1011.5 0.0
23/05:30am 20.0 22.1 19.3 96 0.4 SSE 7 7 4 4 1011.3 - 0.0
23/05:00am 20.3 22.5 19.5 95 0.5 SSE 7 7 4 4 1011.0 - 0.0
23/04:30am 20.7 22.9 19.7 94 0.6 S 7 7 4 4 1010.8 - 0.0
23/04:00am 21.0 23.6 20.0 94 0.6 S 6 9 3 5 1010.9 - 0.0
23/03:30am 21.2 23.5 19.8 92 0.9 S 7 7 4 4 1011.0 - 0.0
23/03:00am 21.7 24.0 19.8 89 1.2 SSE 7 9 4 5 1011.3 1011.3 0.0
23/02:30am 22.3 25.0 20.2 88 1.4 SSE 6 9 3 5 1011.4 - 0.0
23/02:00am 23.0 26.2 20.5 86 1.6 S 4 7 2 4 1011.4 - 0.0
23/01:30am 23.4 26.3 20.7 85 1.8 S 6 9 3 5 1011.5 - 0.0
23/01:00am 23.4 27.3 20.3 83 2.0 CALM 0 0 0 0 1011.7 - 0.0
23/12:30am 24.1 27.8 20.0 78 2.6 CALM 0 6 0 3 1011.5 - 0.0
23/12:00am 25.9 28.9 21.3 76 3.0 N 7 11 4 6 1011.5 1011.5 0.0
 
Date/Time
CST
Temp
°C
App
Temp
°C
Dew
Point
°C
Rel
Hum
%
Delta-T
°C
Wind Press
QNH
hPa
Press
MSL
hPa
Rain since
9am
mm
Dir  Spd
km/h
Gust
km/h
Spd
kts
Gust
kts
22/11:30pm 26.5 29.3 21.5 74 3.3 NNE 9 15 5 8 1011.5 - 0.0
22/11:00pm 26.7 28.9 21.9 75 3.2 N 13 17 7 9 1011.4 - 0.0
22/10:30pm 26.7 29.0 22.1 76 3.1 N 13 19 7 10 1011.3 - 0.0
22/10:00pm 26.7 28.9 21.9 75 3.2 N 13 17 7 9 1011.2 - 0.0
22/09:30pm 26.7 28.5 21.9 75 3.2 N 15 20 8 11 1011.0 - 0.0
22/09:00pm 26.7 28.9 21.9 75 3.2 N 13 20 7 11 1011.1 1011.1 0.0
22/08:30pm 26.2 29.4 22.3 79 2.6 N 9 15 5 8 1010.8 - 0.0
22/08:00pm 22.9 25.5 18.4 76 2.8 WNW 2 7 1 4 1010.5 - 0.0
22/07:30pm 23.8 26.7 18.2 71 3.5 CALM 0 0 0 0 1010.1 - 0.0
22/07:00pm 25.2 27.0 18.4 66 4.3 WNW 6 7 3 4 1009.9 - 0.0
22/06:30pm 27.6 30.7 18.6 58 5.8 CALM 0 0 0 0 1009.8 - 0.0
22/06:00pm 29.7 31.9 19.1 53 6.9 SE 6 11 3 6 1009.7 1009.7 0.0
22/05:30pm 29.9 32.1 19.3 53 6.9 SSE 6 9 3 5 1009.6 - 0.0
22/05:00pm 30.0 31.6 19.1 52 7.1 SSE 9 17 5 9 1009.5 - 0.0
22/04:30pm 30.1 31.4 19.2 52 7.1 S 11 17 6 9 1009.6 - 0.0
22/04:00pm 30.1 31.4 19.2 52 7.1 S 11 17 6 9 1009.7 - 0.0
22/03:30pm 30.3 30.4 18.4 49 7.7 S 15 20 8 11 1009.8 - 0.0
22/03:00pm 31.0 32.0 18.7 48 8.0 S 11 17 6 9 1010.0 1010.0 0.0
22/02:30pm 31.0 31.9 18.4 47 8.1 S 11 17 6 9 1010.5 - 0.0
22/02:00pm 30.9 31.5 18.6 48 8.0 S 13 20 7 11 1010.7 - 0.0
22/01:30pm 30.6 31.1 18.3 47 7.9 S 13 20 7 11 1011.2 - 0.0
22/01:00pm 31.4 32.9 19.7 49 7.7 S 11 19 6 10 1011.5 - 0.0
22/12:30pm 31.5 33.3 19.5 49 7.9 S 9 19 5 10 1012.0 - 0.0
22/12:00pm 30.5 32.4 19.8 52 7.0 S 9 15 5 8 1012.5 1012.5 0.0
22/11:30am 30.5 32.3 20.4 54 6.7 SSE 11 19 6 10 1013.2 - 0.0
22/11:00am 29.9 31.4 20.5 57 6.2 SSE 13 20 7 11 1013.5 - 0.0
22/10:30am 29.2 31.0 20.4 59 5.8 SSE 11 22 6 12 1013.7 - 0.0
22/10:00am 28.9 31.3 20.9 62 5.3 SSE 9 17 5 9 1013.7 - 0.0
22/09:30am 28.0 30.8 21.5 67 4.3 SSE 9 15 5 8 1013.8 - 0.0
22/09:00am 25.8 31.0 24.2 91 1.1 SE 4 9 2 5 1013.5 1013.5 0.0
22/08:30am 22.6 26.3 22.6 100 0.0 S 7 11 4 6 1013.0 - 0.0
22/08:00am 19.9 22.2 19.9 100 0.0 S 7 9 4 5 1012.8 - 0.0
22/07:30am 18.3 19.8 18.1 99 0.1 S 7 9 4 5 1012.6 - 0.0
22/07:00am 18.3 19.8 18.1 99 0.1 S 7 9 4 5 1012.4 - 0.0
22/06:30am 18.4 20.0 18.2 99 0.1 S 7 9 4 5 1012.1 - 0.0
22/06:00am 18.4 20.0 18.2 99 0.1 S 7 9 4 5 1012.0 1012.0 0.0
22/05:30am 18.5 20.1 18.3 99 0.1 S 7 9 4 5 1011.9 - 0.0
22/05:00am 18.4 20.0 18.2 99 0.1 S 7 11 4 6 1011.8 - 0.0
22/04:30am 18.5 20.1 18.3 99 0.1 S 7 9 4 5 1011.9 - 0.0
22/04:00am 18.6 20.3 18.4 99 0.1 S 7 11 4 6 1011.7 - 0.0
22/03:30am 18.3 19.8 18.1 99 0.1 S 7 9 4 5 1011.7 - 0.0
22/03:00am 18.3 19.8 18.1 99 0.1 S 7 11 4 6 1011.9 1011.9 0.0
22/02:30am 18.3 19.8 18.0 98 0.2 S 7 9 4 5 1012.1 - 0.0
22/02:00am 18.3 19.8 18.0 98 0.2 S 7 9 4 5 1012.3 - 0.0
22/01:30am 18.3 19.9 17.8 97 0.3 S 6 9 3 5 1012.4 - 0.0
22/01:00am 18.3 19.8 17.7 96 0.4 S 6 7 3 4 1012.5 - 0.0
22/12:30am 18.3 20.9 17.5 95 0.5 CALM 0 0 0 0 1012.5 - 0.0
22/12:00am 18.3 20.8 17.3 94 0.6 CALM 0 0 0 0 1012.5 1012.5 0.0
 
Date/Time
CST
Temp
°C
App
Temp
°C
Dew
Point
°C
Rel
Hum
%
Delta-T
°C
Wind Press
QNH
hPa
Press
MSL
hPa
Rain since
9am
mm
Dir  Spd
km/h
Gust
km/h
Spd
kts
Gust
kts
21/11:30pm 18.6 20.4 17.4 93 0.7 SSE 4 6 2 3 1012.5 - 0.0
21/11:00pm 18.7 20.5 17.4 92 0.8 SSE 4 6 2 3 1012.5 - 0.0
21/10:30pm 19.0 20.4 17.7 92 0.8 SSE 7 7 4 4 1012.6 - 0.0
21/10:00pm 19.1 20.4 17.2 89 1.2 SE 6 6 3 3 1012.6 - 0.0
21/09:30pm 19.5 21.0 17.6 89 1.2 SE 6 7 3 4 1012.5 - 0.0
21/09:00pm 19.8 21.0 17.4 86 1.5 SE 7 7 4 4 1012.3 1012.3 0.0
21/08:30pm 20.2 22.0 17.4 84 1.7 S 4 7 2 4 1012.1 - 0.0
21/08:00pm 21.0 23.6 17.4 80 2.2 CALM 0 0 0 0 1011.7 - 0.0
21/07:30pm 22.1 24.6 17.2 74 3.0 CALM 0 0 0 0 1011.4 - 0.0
21/07:00pm 23.8 26.4 17.5 68 3.9 CALM 0 0 0 0 1011.2 - 0.0
21/06:30pm 26.4 28.3 18.5 62 5.0 S 6 7 3 4 1011.0 - 0.0
21/06:00pm 28.2 30.1 18.9 57 6.0 S 7 11 4 6 1010.8 1010.8 0.0
21/05:30pm 28.9 30.4 18.9 54 6.5 S 9 15 5 8 1010.6 - 0.0
21/05:00pm 29.0 29.9 18.4 52 6.8 S 11 15 6 8 1010.5 - 0.0
21/04:30pm 29.6 31.0 18.7 52 7.0 SSW 9 17 5 9 1010.5 - 0.0
21/04:00pm 29.7 30.4 18.8 52 7.0 SSW 13 19 7 10 1010.6 - 0.0
21/03:30pm 30.2 31.1 19.2 51 7.2 S 13 20 7 11 1010.6 - 0.0
21/03:00pm 30.4 31.2 19.1 50 7.4 S 13 19 7 10 1010.9 1010.9 0.0
21/02:30pm 30.9 31.7 19.9 52 7.2 SW 15 22 8 12 1011.4 - 0.0
21/02:00pm 30.9 31.6 19.6 51 7.4 SSW 15 22 8 12 1012.0 - 0.0
21/01:30pm 30.6 32.3 20.2 53 6.9 S 11 20 6 11 1012.6 - 0.0
21/01:00pm 30.4 32.6 20.3 54 6.7 NNE 9 17 5 9 1012.9 - 0.0
21/12:30pm 29.4 31.4 20.0 57 6.2 S 9 13 5 7 1013.5 - 0.0
21/12:00pm 29.6 31.8 20.5 58 6.0 SE 9 15 5 8 1013.8 1013.8 0.0
21/11:30am 30.2 32.7 21.0 58 6.1 SE 9 15 5 8 1014.1 - 0.0
21/11:00am 30.3 32.5 20.5 55 6.5 SSE 9 17 5 9 1014.3 - 0.0
21/10:30am 28.6 31.1 21.1 64 5.0 SSE 9 17 5 9 1014.3 - 0.0
21/10:00am 27.8 31.0 21.6 69 4.1 SSE 7 13 4 7 1014.2 - 0.0
21/09:30am 27.0 30.6 22.4 76 3.1 S 7 11 4 6 1014.0 - 0.0
21/09:00am 24.7 30.6 24.7 100 0.0 SE 2 7 1 4 1014.0 1014.0 0.0
21/08:30am 22.0 25.6 22.0 100 0.0 SE 6 7 3 4 1013.7 - 0.0
21/08:00am 18.8 20.6 18.8 100 0.0 ESE 7 9 4 5 1013.4 - 0.0
21/07:30am 17.3 18.4 17.1 99 0.1 ESE 7 9 4 5 1013.3 - 0.0
21/07:00am 17.0 18.0 16.8 99 0.1 SE 7 9 4 5 1013.1 - 0.0
21/06:30am 17.0 18.0 16.8 99 0.1 SE 7 9 4 5 1012.8 - 0.0
21/06:00am 16.9 17.8 16.7 99 0.1 SE 7 9 4 5 1012.5 1012.5 0.0
21/05:30am 16.9 17.8 16.7 99 0.1 SE 7 7 4 4 1012.5 - 0.0
21/05:00am 17.0 18.0 16.8 99 0.1 SSE 7 9 4 5 1012.3 - 0.0
21/04:30am 17.0 18.0 16.8 99 0.1 SSE 7 9 4 5 1012.3 - 0.0
21/04:00am 17.4 18.5 17.2 99 0.1 SSE 7 9 4 5 1012.3 - 0.0
21/03:30am 17.1 18.1 16.9 99 0.1 SE 7 9 4 5 1012.3 - 0.0
21/03:00am 17.2 18.3 17.0 99 0.1 SSE 7 9 4 5 1012.6 1012.6 0.0
21/02:30am 17.5 18.3 17.3 99 0.1 SSE 9 9 5 5 1012.9 - 0.0
21/02:00am 17.6 18.4 17.3 98 0.2 SSE 9 11 5 6 1013.0 - 0.0
21/01:30am 17.4 18.4 16.9 97 0.3 SSE 7 9 4 5 1013.1 - 0.0
21/01:00am 17.5 19.9 16.9 96 0.4 CALM 0 0 0 0 1013.2 - 0.0
21/12:30am 17.5 19.9 16.9 96 0.4 CALM 0 0 0 0 1013.3 - 0.0
21/12:00am 17.7 20.1 16.9 95 0.5 CALM 0 0 0 0 1013.3 1013.3 0.0
 
Date/Time
CST
Temp
°C
App
Temp
°C
Dew
Point
°C
Rel
Hum
%
Delta-T
°C
Wind Press
QNH
hPa
Press
MSL
hPa
Rain since
9am
mm
Dir  Spd
km/h
Gust
km/h
Spd
kts
Gust
kts
20/11:30pm 17.8 20.1 16.7 93 0.7 CALM 0 0 0 0 1013.4 - 0.0
20/11:00pm 18.1 20.5 16.9 93 0.7 CALM 0 0 0 0 1013.5 - 0.0

Other Formats:

Comma delimited format used in spreadsheet applications
http://www.bom.gov.au/fwo/IDD60801/IDD60801.94122.axf

JavaScript Object Notation format (JSON) in row-major order
http://www.bom.gov.au/fwo/IDD60801/IDD60801.94122.json